sensor_id;sensor_type;location;lat;lon;timestamp;P1;durP1;ratioP1;P2;durP2;ratioP2
19927;SDS011;10126;50.876;4.470;2023-07-08T00:00:57;0.10;;;0.10;;
19927;SDS011;10126;50.876;4.470;2023-07-08T00:02:58;0.10;;;0.10;;
19927;SDS011;10126;50.876;4.470;2023-07-08T00:04:58;0.10;;;0.10;;
19927;SDS011;10126;50.876;4.470;2023-07-08T00:06:59;0.10;;;0.10;;
19927;SDS011;10126;50.876;4.470;2023-07-08T00:09:00;0.10;;;0.10;;
19927;SDS011;10126;50.876;4.470;2023-07-08T00:11:00;0.10;;;0.10;;
19927;SDS011;10126;50.876;4.470;2023-07-08T00:13:01;0.00;;;0.00;;
19927;SDS011;10126;50.876;4.470;2023-07-08T00:15:02;0.10;;;0.10;;
19927;SDS011;10126;50.876;4.470;2023-07-08T00:17:02;0.10;;;0.10;;
19927;SDS011;10126;50.876;4.470;2023-07-08T00:19:09;0.10;;;0.10;;
19927;SDS011;10126;50.876;4.470;2023-07-08T00:21:11;0.10;;;0.10;;
19927;SDS011;10126;50.876;4.470;2023-07-08T00:23:15;0.10;;;0.10;;
19927;SDS011;10126;50.876;4.470;2023-07-08T00:25:16;0.10;;;0.10;;
19927;SDS011;10126;50.876;4.470;2023-07-08T00:27:19;0.10;;;0.10;;
19927;SDS011;10126;50.876;4.470;2023-07-08T00:29:20;0.10;;;0.10;;
19927;SDS011;10126;50.876;4.470;2023-07-08T00:31:21;0.10;;;0.10;;
19927;SDS011;10126;50.876;4.470;2023-07-08T00:33:23;0.10;;;0.10;;
19927;SDS011;10126;50.876;4.470;2023-07-08T00:37:30;0.10;;;0.10;;
19927;SDS011;10126;50.876;4.470;2023-07-08T00:39:33;0.10;;;0.10;;
19927;SDS011;10126;50.876;4.470;2023-07-08T00:41:35;0.10;;;0.10;;
19927;SDS011;10126;50.876;4.470;2023-07-08T00:43:43;0.10;;;0.10;;
19927;SDS011;10126;50.876;4.470;2023-07-08T00:45:53;0.10;;;0.10;;
19927;SDS011;10126;50.876;4.470;2023-07-08T00:50:19;0.17;;;0.17;;
19927;SDS011;10126;50.876;4.470;2023-07-08T00:52:23;0.10;;;0.10;;
19927;SDS011;10126;50.876;4.470;2023-07-08T00:54:26;0.10;;;0.10;;
19927;SDS011;10126;50.876;4.470;2023-07-08T00:56:28;0.10;;;0.10;;
19927;SDS011;10126;50.876;4.470;2023-07-08T00:58:35;0.10;;;0.10;;
19927;SDS011;10126;50.876;4.470;2023-07-08T01:00:47;0.10;;;0.10;;
19927;SDS011;10126;50.876;4.470;2023-07-08T01:02:52;0.10;;;0.10;;
19927;SDS011;10126;50.876;4.470;2023-07-08T01:05:01;0.10;;;0.10;;
19927;SDS011;10126;50.876;4.470;2023-07-08T01:07:04;0.10;;;0.10;;
19927;SDS011;10126;50.876;4.470;2023-07-08T01:09:08;0.10;;;0.10;;
19927;SDS011;10126;50.876;4.470;2023-07-08T01:11:11;0.10;;;0.10;;
19927;SDS011;10126;50.876;4.470;2023-07-08T01:13:12;0.10;;;0.10;;
19927;SDS011;10126;50.876;4.470;2023-07-08T01:15:14;0.10;;;0.10;;
19927;SDS011;10126;50.876;4.470;2023-07-08T01:17:15;0.20;;;0.20;;
19927;SDS011;10126;50.876;4.470;2023-07-08T01:19:17;0.07;;;0.07;;
19927;SDS011;10126;50.876;4.470;2023-07-08T01:21:28;0.10;;;0.10;;
19927;SDS011;10126;50.876;4.470;2023-07-08T01:23:39;0.10;;;0.10;;
19927;SDS011;10126;50.876;4.470;2023-07-08T01:25:41;0.10;;;0.10;;
19927;SDS011;10126;50.876;4.470;2023-07-08T01:27:43;0.10;;;0.10;;
19927;SDS011;10126;50.876;4.470;2023-07-08T01:29:47;0.10;;;0.10;;
19927;SDS011;10126;50.876;4.470;2023-07-08T01:31:47;0.10;;;0.10;;
19927;SDS011;10126;50.876;4.470;2023-07-08T01:33:49;0.10;;;0.10;;
19927;SDS011;10126;50.876;4.470;2023-07-08T01:35:51;0.10;;;0.10;;
19927;SDS011;10126;50.876;4.470;2023-07-08T01:37:53;0.10;;;0.10;;
19927;SDS011;10126;50.876;4.470;2023-07-08T01:39:57;0.10;;;0.10;;
19927;SDS011;10126;50.876;4.470;2023-07-08T01:42:13;0.10;;;0.10;;
19927;SDS011;10126;50.876;4.470;2023-07-08T01:46:30;0.10;;;0.10;;
19927;SDS011;10126;50.876;4.470;2023-07-08T01:48:33;0.10;;;0.10;;
19927;SDS011;10126;50.876;4.470;2023-07-08T01:50:42;0.10;;;0.10;;
19927;SDS011;10126;50.876;4.470;2023-07-08T01:52:49;0.10;;;0.10;;
19927;SDS011;10126;50.876;4.470;2023-07-08T01:54:55;0.10;;;0.10;;
19927;SDS011;10126;50.876;4.470;2023-07-08T01:56:56;0.10;;;0.10;;
19927;SDS011;10126;50.876;4.470;2023-07-08T01:58:57;0.20;;;0.20;;
19927;SDS011;10126;50.876;4.470;2023-07-08T02:00:58;0.20;;;0.20;;
19927;SDS011;10126;50.876;4.470;2023-07-08T02:02:59;0.10;;;0.10;;
19927;SDS011;10126;50.876;4.470;2023-07-08T02:05:00;0.10;;;0.10;;
19927;SDS011;10126;50.876;4.470;2023-07-08T02:07:01;0.10;;;0.10;;
19927;SDS011;10126;50.876;4.470;2023-07-08T02:09:04;0.20;;;0.20;;
19927;SDS011;10126;50.876;4.470;2023-07-08T02:11:06;0.10;;;0.10;;
19927;SDS011;10126;50.876;4.470;2023-07-08T02:13:06;0.10;;;0.10;;
19927;SDS011;10126;50.876;4.470;2023-07-08T02:15:08;0.10;;;0.10;;
19927;SDS011;10126;50.876;4.470;2023-07-08T02:17:09;0.10;;;0.10;;
19927;SDS011;10126;50.876;4.470;2023-07-08T02:19:10;0.10;;;0.10;;
19927;SDS011;10126;50.876;4.470;2023-07-08T02:21:11;0.10;;;0.10;;
19927;SDS011;10126;50.876;4.470;2023-07-08T02:23:13;0.10;;;0.10;;
19927;SDS011;10126;50.876;4.470;2023-07-08T02:25:15;0.10;;;0.10;;
19927;SDS011;10126;50.876;4.470;2023-07-08T02:27:15;0.10;;;0.10;;
19927;SDS011;10126;50.876;4.470;2023-07-08T02:29:16;0.10;;;0.10;;
19927;SDS011;10126;50.876;4.470;2023-07-08T02:31:17;0.20;;;0.20;;
19927;SDS011;10126;50.876;4.470;2023-07-08T02:33:18;0.10;;;0.10;;
19927;SDS011;10126;50.876;4.470;2023-07-08T02:35:18;0.10;;;0.10;;
19927;SDS011;10126;50.876;4.470;2023-07-08T02:37:19;0.10;;;0.10;;
19927;SDS011;10126;50.876;4.470;2023-07-08T02:39:19;0.10;;;0.10;;
19927;SDS011;10126;50.876;4.470;2023-07-08T02:41:20;0.10;;;0.10;;
19927;SDS011;10126;50.876;4.470;2023-07-08T02:43:21;0.10;;;0.10;;
19927;SDS011;10126;50.876;4.470;2023-07-08T02:45:21;0.10;;;0.10;;
19927;SDS011;10126;50.876;4.470;2023-07-08T02:47:22;0.10;;;0.10;;
19927;SDS011;10126;50.876;4.470;2023-07-08T02:49:23;0.10;;;0.10;;
19927;SDS011;10126;50.876;4.470;2023-07-08T02:51:23;0.10;;;0.10;;
19927;SDS011;10126;50.876;4.470;2023-07-08T02:53:24;0.10;;;0.10;;
19927;SDS011;10126;50.876;4.470;2023-07-08T02:55:24;0.10;;;0.10;;
19927;SDS011;10126;50.876;4.470;2023-07-08T02:57:25;0.20;;;0.20;;
19927;SDS011;10126;50.876;4.470;2023-07-08T02:59:26;0.10;;;0.10;;
19927;SDS011;10126;50.876;4.470;2023-07-08T03:01:28;0.10;;;0.10;;
19927;SDS011;10126;50.876;4.470;2023-07-08T03:03:29;0.10;;;0.10;;
19927;SDS011;10126;50.876;4.470;2023-07-08T03:05:32;0.10;;;0.10;;
19927;SDS011;10126;50.876;4.470;2023-07-08T03:07:34;0.10;;;0.10;;
19927;SDS011;10126;50.876;4.470;2023-07-08T03:09:34;0.10;;;0.10;;
19927;SDS011;10126;50.876;4.470;2023-07-08T03:11:35;0.10;;;0.10;;
19927;SDS011;10126;50.876;4.470;2023-07-08T03:13:36;0.10;;;0.10;;
19927;SDS011;10126;50.876;4.470;2023-07-08T03:15:37;0.10;;;0.10;;
19927;SDS011;10126;50.876;4.470;2023-07-08T03:17:38;0.10;;;0.10;;
19927;SDS011;10126;50.876;4.470;2023-07-08T03:19:39;0.10;;;0.10;;
19927;SDS011;10126;50.876;4.470;2023-07-08T03:21:40;0.10;;;0.10;;
19927;SDS011;10126;50.876;4.470;2023-07-08T03:23:42;0.10;;;0.10;;
19927;SDS011;10126;50.876;4.470;2023-07-08T03:25:43;0.10;;;0.10;;
19927;SDS011;10126;50.876;4.470;2023-07-08T03:27:43;0.10;;;0.10;;
19927;SDS011;10126;50.876;4.470;2023-07-08T03:29:44;0.07;;;0.07;;
19927;SDS011;10126;50.876;4.470;2023-07-08T03:31:47;0.10;;;0.10;;
19927;SDS011;10126;50.876;4.470;2023-07-08T03:33:48;0.10;;;0.10;;
19927;SDS011;10126;50.876;4.470;2023-07-08T03:35:49;0.10;;;0.10;;
19927;SDS011;10126;50.876;4.470;2023-07-08T03:37:50;0.10;;;0.10;;
19927;SDS011;10126;50.876;4.470;2023-07-08T03:39:51;0.10;;;0.10;;
19927;SDS011;10126;50.876;4.470;2023-07-08T03:41:52;0.10;;;0.10;;
19927;SDS011;10126;50.876;4.470;2023-07-08T03:43:53;0.10;;;0.10;;
19927;SDS011;10126;50.876;4.470;2023-07-08T03:45:53;0.10;;;0.10;;
19927;SDS011;10126;50.876;4.470;2023-07-08T03:47:54;0.10;;;0.10;;
19927;SDS011;10126;50.876;4.470;2023-07-08T03:49:55;0.10;;;0.10;;
19927;SDS011;10126;50.876;4.470;2023-07-08T03:51:55;0.10;;;0.10;;
19927;SDS011;10126;50.876;4.470;2023-07-08T03:53:56;0.10;;;0.10;;
19927;SDS011;10126;50.876;4.470;2023-07-08T03:55:57;0.10;;;0.10;;
19927;SDS011;10126;50.876;4.470;2023-07-08T03:57:58;0.10;;;0.10;;
19927;SDS011;10126;50.876;4.470;2023-07-08T03:59:58;0.10;;;0.10;;
19927;SDS011;10126;50.876;4.470;2023-07-08T04:01:59;0.10;;;0.10;;
19927;SDS011;10126;50.876;4.470;2023-07-08T04:04:00;0.10;;;0.10;;
19927;SDS011;10126;50.876;4.470;2023-07-08T04:06:00;0.10;;;0.10;;
19927;SDS011;10126;50.876;4.470;2023-07-08T04:08:01;0.10;;;0.10;;
19927;SDS011;10126;50.876;4.470;2023-07-08T04:10:01;0.10;;;0.10;;
19927;SDS011;10126;50.876;4.470;2023-07-08T04:12:02;0.10;;;0.10;;
19927;SDS011;10126;50.876;4.470;2023-07-08T04:14:05;0.10;;;0.10;;
19927;SDS011;10126;50.876;4.470;2023-07-08T04:16:05;0.10;;;0.10;;
19927;SDS011;10126;50.876;4.470;2023-07-08T04:18:08;0.20;;;0.20;;
19927;SDS011;10126;50.876;4.470;2023-07-08T04:20:09;0.17;;;0.17;;
19927;SDS011;10126;50.876;4.470;2023-07-08T04:22:11;0.10;;;0.10;;
19927;SDS011;10126;50.876;4.470;2023-07-08T04:24:12;0.10;;;0.10;;
19927;SDS011;10126;50.876;4.470;2023-07-08T04:26:14;0.10;;;0.10;;
19927;SDS011;10126;50.876;4.470;2023-07-08T04:28:15;0.10;;;0.10;;
19927;SDS011;10126;50.876;4.470;2023-07-08T04:30:23;0.10;;;0.10;;
19927;SDS011;10126;50.876;4.470;2023-07-08T04:32:24;0.10;;;0.10;;
19927;SDS011;10126;50.876;4.470;2023-07-08T04:34:25;0.10;;;0.10;;
19927;SDS011;10126;50.876;4.470;2023-07-08T04:36:26;0.10;;;0.10;;
19927;SDS011;10126;50.876;4.470;2023-07-08T04:38:26;0.20;;;0.20;;
19927;SDS011;10126;50.876;4.470;2023-07-08T04:40:27;0.10;;;0.10;;
19927;SDS011;10126;50.876;4.470;2023-07-08T04:42:28;0.10;;;0.10;;
19927;SDS011;10126;50.876;4.470;2023-07-08T04:44:28;0.10;;;0.10;;
19927;SDS011;10126;50.876;4.470;2023-07-08T04:46:34;0.10;;;0.10;;
19927;SDS011;10126;50.876;4.470;2023-07-08T04:48:38;0.10;;;0.10;;
19927;SDS011;10126;50.876;4.470;2023-07-08T04:50:40;0.10;;;0.10;;
19927;SDS011;10126;50.876;4.470;2023-07-08T04:52:41;0.10;;;0.10;;
19927;SDS011;10126;50.876;4.470;2023-07-08T04:54:42;0.10;;;0.10;;
19927;SDS011;10126;50.876;4.470;2023-07-08T04:56:46;0.10;;;0.10;;
19927;SDS011;10126;50.876;4.470;2023-07-08T04:58:48;0.10;;;0.10;;
19927;SDS011;10126;50.876;4.470;2023-07-08T05:00:50;0.10;;;0.10;;
19927;SDS011;10126;50.876;4.470;2023-07-08T05:02:51;0.10;;;0.10;;
19927;SDS011;10126;50.876;4.470;2023-07-08T05:04:57;0.00;;;0.00;;
19927;SDS011;10126;50.876;4.470;2023-07-08T05:07:06;0.10;;;0.10;;
19927;SDS011;10126;50.876;4.470;2023-07-08T05:09:09;0.00;;;0.00;;
19927;SDS011;10126;50.876;4.470;2023-07-08T05:11:10;0.00;;;0.00;;
19927;SDS011;10126;50.876;4.470;2023-07-08T05:13:11;0.10;;;0.10;;
19927;SDS011;10126;50.876;4.470;2023-07-08T05:15:11;0.00;;;0.00;;
19927;SDS011;10126;50.876;4.470;2023-07-08T05:17:13;0.00;;;0.00;;
19927;SDS011;10126;50.876;4.470;2023-07-08T05:19:23;0.10;;;0.10;;
19927;SDS011;10126;50.876;4.470;2023-07-08T05:21:24;0.00;;;0.00;;
19927;SDS011;10126;50.876;4.470;2023-07-08T05:23:27;0.00;;;0.00;;
19927;SDS011;10126;50.876;4.470;2023-07-08T05:25:30;0.00;;;0.00;;
19927;SDS011;10126;50.876;4.470;2023-07-08T05:27:32;0.00;;;0.00;;
19927;SDS011;10126;50.876;4.470;2023-07-08T05:29:35;0.00;;;0.00;;
19927;SDS011;10126;50.876;4.470;2023-07-08T05:31:36;0.00;;;0.00;;
19927;SDS011;10126;50.876;4.470;2023-07-08T05:33:37;0.00;;;0.00;;
19927;SDS011;10126;50.876;4.470;2023-07-08T05:35:37;0.00;;;0.00;;
19927;SDS011;10126;50.876;4.470;2023-07-08T05:37:38;0.00;;;0.00;;
19927;SDS011;10126;50.876;4.470;2023-07-08T05:39:40;0.15;;;0.10;;
19927;SDS011;10126;50.876;4.470;2023-07-08T05:41:40;0.00;;;0.00;;
19927;SDS011;10126;50.876;4.470;2023-07-08T05:43:41;0.00;;;0.00;;
19927;SDS011;10126;50.876;4.470;2023-07-08T05:45:41;0.00;;;0.00;;
19927;SDS011;10126;50.876;4.470;2023-07-08T05:47:42;0.00;;;0.00;;
19927;SDS011;10126;50.876;4.470;2023-07-08T05:49:46;0.00;;;0.00;;
19927;SDS011;10126;50.876;4.470;2023-07-08T05:51:46;0.00;;;0.00;;
19927;SDS011;10126;50.876;4.470;2023-07-08T05:53:47;0.00;;;0.00;;
19927;SDS011;10126;50.876;4.470;2023-07-08T05:55:48;0.00;;;0.00;;
19927;SDS011;10126;50.876;4.470;2023-07-08T05:57:49;0.00;;;0.00;;
19927;SDS011;10126;50.876;4.470;2023-07-08T05:59:50;0.00;;;0.00;;
19927;SDS011;10126;50.876;4.470;2023-07-08T06:01:51;0.00;;;0.00;;
19927;SDS011;10126;50.876;4.470;2023-07-08T06:03:52;0.00;;;0.00;;
19927;SDS011;10126;50.876;4.470;2023-07-08T06:05:52;0.00;;;0.00;;
19927;SDS011;10126;50.876;4.470;2023-07-08T06:07:53;0.00;;;0.00;;
19927;SDS011;10126;50.876;4.470;2023-07-08T06:09:53;0.00;;;0.00;;
19927;SDS011;10126;50.876;4.470;2023-07-08T06:11:57;0.00;;;0.00;;
19927;SDS011;10126;50.876;4.470;2023-07-08T06:13:58;0.00;;;0.00;;
19927;SDS011;10126;50.876;4.470;2023-07-08T06:15:58;0.00;;;0.00;;
19927;SDS011;10126;50.876;4.470;2023-07-08T06:17:59;0.00;;;0.00;;
19927;SDS011;10126;50.876;4.470;2023-07-08T06:20:02;0.00;;;0.00;;
19927;SDS011;10126;50.876;4.470;2023-07-08T06:22:03;0.00;;;0.00;;
19927;SDS011;10126;50.876;4.470;2023-07-08T06:26:35;0.00;;;0.00;;
19927;SDS011;10126;50.876;4.470;2023-07-08T06:28:36;0.00;;;0.00;;
19927;SDS011;10126;50.876;4.470;2023-07-08T06:30:37;0.00;;;0.00;;
19927;SDS011;10126;50.876;4.470;2023-07-08T06:32:37;0.00;;;0.00;;
19927;SDS011;10126;50.876;4.470;2023-07-08T06:34:38;0.00;;;0.00;;
19927;SDS011;10126;50.876;4.470;2023-07-08T06:36:39;0.00;;;0.00;;
19927;SDS011;10126;50.876;4.470;2023-07-08T06:38:39;0.00;;;0.00;;
19927;SDS011;10126;50.876;4.470;2023-07-08T06:40:43;0.00;;;0.00;;
19927;SDS011;10126;50.876;4.470;2023-07-08T06:42:47;0.00;;;0.00;;
19927;SDS011;10126;50.876;4.470;2023-07-08T06:44:50;0.00;;;0.00;;
19927;SDS011;10126;50.876;4.470;2023-07-08T06:46:51;0.00;;;0.00;;
19927;SDS011;10126;50.876;4.470;2023-07-08T06:48:51;0.00;;;0.00;;
19927;SDS011;10126;50.876;4.470;2023-07-08T06:50:54;0.00;;;0.00;;
19927;SDS011;10126;50.876;4.470;2023-07-08T06:52:57;0.00;;;0.00;;
19927;SDS011;10126;50.876;4.470;2023-07-08T06:55:20;0.00;;;0.00;;
19927;SDS011;10126;50.876;4.470;2023-07-08T06:57:23;0.00;;;0.00;;
19927;SDS011;10126;50.876;4.470;2023-07-08T06:59:24;0.00;;;0.00;;
19927;SDS011;10126;50.876;4.470;2023-07-08T07:01:28;0.00;;;0.00;;
19927;SDS011;10126;50.876;4.470;2023-07-08T07:03:29;0.00;;;0.00;;
19927;SDS011;10126;50.876;4.470;2023-07-08T07:05:33;0.00;;;0.00;;
19927;SDS011;10126;50.876;4.470;2023-07-08T07:07:33;0.00;;;0.00;;
19927;SDS011;10126;50.876;4.470;2023-07-08T07:09:34;0.00;;;0.00;;
19927;SDS011;10126;50.876;4.470;2023-07-08T07:11:35;0.00;;;0.00;;
19927;SDS011;10126;50.876;4.470;2023-07-08T07:13:35;0.00;;;0.00;;
19927;SDS011;10126;50.876;4.470;2023-07-08T07:15:36;0.00;;;0.00;;
19927;SDS011;10126;50.876;4.470;2023-07-08T07:17:37;0.00;;;0.00;;
19927;SDS011;10126;50.876;4.470;2023-07-08T07:19:38;0.00;;;0.00;;
19927;SDS011;10126;50.876;4.470;2023-07-08T07:21:38;0.00;;;0.00;;
19927;SDS011;10126;50.876;4.470;2023-07-08T07:23:39;0.00;;;0.00;;
19927;SDS011;10126;50.876;4.470;2023-07-08T07:25:39;0.00;;;0.00;;
19927;SDS011;10126;50.876;4.470;2023-07-08T07:27:40;0.00;;;0.00;;
19927;SDS011;10126;50.876;4.470;2023-07-08T07:29:42;0.00;;;0.00;;
19927;SDS011;10126;50.876;4.470;2023-07-08T07:31:44;0.00;;;0.00;;
19927;SDS011;10126;50.876;4.470;2023-07-08T07:33:47;0.00;;;0.00;;
19927;SDS011;10126;50.876;4.470;2023-07-08T07:35:48;0.00;;;0.00;;
19927;SDS011;10126;50.876;4.470;2023-07-08T07:37:48;0.00;;;0.00;;
19927;SDS011;10126;50.876;4.470;2023-07-08T07:39:49;0.00;;;0.00;;
19927;SDS011;10126;50.876;4.470;2023-07-08T07:41:49;0.00;;;0.00;;
19927;SDS011;10126;50.876;4.470;2023-07-08T07:43:50;0.00;;;0.00;;
19927;SDS011;10126;50.876;4.470;2023-07-08T07:45:51;0.00;;;0.00;;
19927;SDS011;10126;50.876;4.470;2023-07-08T07:47:52;0.00;;;0.00;;
19927;SDS011;10126;50.876;4.470;2023-07-08T07:49:53;0.00;;;0.00;;
19927;SDS011;10126;50.876;4.470;2023-07-08T07:52:06;0.00;;;0.00;;
19927;SDS011;10126;50.876;4.470;2023-07-08T07:54:07;0.00;;;0.00;;
19927;SDS011;10126;50.876;4.470;2023-07-08T07:56:11;0.00;;;0.00;;
19927;SDS011;10126;50.876;4.470;2023-07-08T07:58:11;0.00;;;0.00;;
19927;SDS011;10126;50.876;4.470;2023-07-08T08:00:12;0.00;;;0.00;;
19927;SDS011;10126;50.876;4.470;2023-07-08T08:02:16;0.00;;;0.00;;
19927;SDS011;10126;50.876;4.470;2023-07-08T08:04:17;0.00;;;0.00;;
19927;SDS011;10126;50.876;4.470;2023-07-08T08:06:18;0.00;;;0.00;;
19927;SDS011;10126;50.876;4.470;2023-07-08T08:08:19;0.00;;;0.00;;
19927;SDS011;10126;50.876;4.470;2023-07-08T08:10:20;0.00;;;0.00;;
19927;SDS011;10126;50.876;4.470;2023-07-08T08:12:21;0.00;;;0.00;;
19927;SDS011;10126;50.876;4.470;2023-07-08T08:14:24;0.00;;;0.00;;
19927;SDS011;10126;50.876;4.470;2023-07-08T08:16:25;0.00;;;0.00;;
19927;SDS011;10126;50.876;4.470;2023-07-08T08:18:25;0.00;;;0.00;;
19927;SDS011;10126;50.876;4.470;2023-07-08T08:20:27;0.00;;;0.00;;
19927;SDS011;10126;50.876;4.470;2023-07-08T08:22:28;0.00;;;0.00;;
19927;SDS011;10126;50.876;4.470;2023-07-08T08:24:29;0.00;;;0.00;;
19927;SDS011;10126;50.876;4.470;2023-07-08T08:26:29;0.00;;;0.00;;
19927;SDS011;10126;50.876;4.470;2023-07-08T08:28:30;0.00;;;0.00;;
19927;SDS011;10126;50.876;4.470;2023-07-08T08:30:34;0.00;;;0.00;;
19927;SDS011;10126;50.876;4.470;2023-07-08T08:32:35;0.00;;;0.00;;
19927;SDS011;10126;50.876;4.470;2023-07-08T08:34:36;0.00;;;0.00;;
19927;SDS011;10126;50.876;4.470;2023-07-08T08:36:36;0.00;;;0.00;;
19927;SDS011;10126;50.876;4.470;2023-07-08T08:38:37;0.00;;;0.00;;
19927;SDS011;10126;50.876;4.470;2023-07-08T08:40:39;0.00;;;0.00;;
19927;SDS011;10126;50.876;4.470;2023-07-08T08:42:43;0.00;;;0.00;;
19927;SDS011;10126;50.876;4.470;2023-07-08T08:44:49;0.00;;;0.00;;
19927;SDS011;10126;50.876;4.470;2023-07-08T08:46:55;0.00;;;0.00;;
19927;SDS011;10126;50.876;4.470;2023-07-08T08:51:16;0.00;;;0.00;;
19927;SDS011;10126;50.876;4.470;2023-07-08T08:53:20;0.00;;;0.00;;
19927;SDS011;10126;50.876;4.470;2023-07-08T08:55:25;0.00;;;0.00;;
19927;SDS011;10126;50.876;4.470;2023-07-08T08:57:36;0.00;;;0.00;;
19927;SDS011;10126;50.876;4.470;2023-07-08T08:59:44;0.00;;;0.00;;
19927;SDS011;10126;50.876;4.470;2023-07-08T09:01:53;0.00;;;0.00;;
19927;SDS011;10126;50.876;4.470;2023-07-08T09:03:59;0.00;;;0.00;;
19927;SDS011;10126;50.876;4.470;2023-07-08T09:06:25;0.00;;;0.00;;
19927;SDS011;10126;50.876;4.470;2023-07-08T09:08:30;0.00;;;0.00;;
19927;SDS011;10126;50.876;4.470;2023-07-08T09:10:42;0.00;;;0.00;;
19927;SDS011;10126;50.876;4.470;2023-07-08T09:12:56;0.00;;;0.00;;
19927;SDS011;10126;50.876;4.470;2023-07-08T09:15:15;0.00;;;0.00;;
19927;SDS011;10126;50.876;4.470;2023-07-08T09:17:29;0.00;;;0.00;;
19927;SDS011;10126;50.876;4.470;2023-07-08T09:19:35;0.00;;;0.00;;
19927;SDS011;10126;50.876;4.470;2023-07-08T09:22:00;0.00;;;0.00;;
19927;SDS011;10126;50.876;4.470;2023-07-08T09:24:21;0.00;;;0.00;;
19927;SDS011;10126;50.876;4.470;2023-07-08T09:26:30;0.00;;;0.00;;
19927;SDS011;10126;50.876;4.470;2023-07-08T09:28:37;0.00;;;0.00;;
19927;SDS011;10126;50.876;4.470;2023-07-08T09:30:39;0.00;;;0.00;;
19927;SDS011;10126;50.876;4.470;2023-07-08T09:32:40;0.00;;;0.00;;
19927;SDS011;10126;50.876;4.470;2023-07-08T09:34:43;0.00;;;0.00;;
19927;SDS011;10126;50.876;4.470;2023-07-08T09:37:17;0.00;;;0.00;;
19927;SDS011;10126;50.876;4.470;2023-07-08T09:39:27;0.00;;;0.00;;
19927;SDS011;10126;50.876;4.470;2023-07-08T09:41:31;0.00;;;0.00;;
19927;SDS011;10126;50.876;4.470;2023-07-08T09:43:37;0.00;;;0.00;;
19927;SDS011;10126;50.876;4.470;2023-07-08T09:45:42;0.00;;;0.00;;
19927;SDS011;10126;50.876;4.470;2023-07-08T09:47:46;0.00;;;0.00;;
19927;SDS011;10126;50.876;4.470;2023-07-08T09:49:47;0.00;;;0.00;;
19927;SDS011;10126;50.876;4.470;2023-07-08T09:51:48;0.00;;;0.00;;
19927;SDS011;10126;50.876;4.470;2023-07-08T09:53:50;0.00;;;0.00;;
19927;SDS011;10126;50.876;4.470;2023-07-08T09:55:51;0.00;;;0.00;;
19927;SDS011;10126;50.876;4.470;2023-07-08T09:57:52;0.00;;;0.00;;
19927;SDS011;10126;50.876;4.470;2023-07-08T09:59:57;0.00;;;0.00;;
19927;SDS011;10126;50.876;4.470;2023-07-08T10:02:04;0.00;;;0.00;;
19927;SDS011;10126;50.876;4.470;2023-07-08T10:04:21;0.00;;;0.00;;
19927;SDS011;10126;50.876;4.470;2023-07-08T10:06:24;0.00;;;0.00;;
19927;SDS011;10126;50.876;4.470;2023-07-08T10:08:37;0.00;;;0.00;;
19927;SDS011;10126;50.876;4.470;2023-07-08T10:10:43;0.00;;;0.00;;
19927;SDS011;10126;50.876;4.470;2023-07-08T10:12:54;0.00;;;0.00;;
19927;SDS011;10126;50.876;4.470;2023-07-08T10:15:01;0.00;;;0.00;;
19927;SDS011;10126;50.876;4.470;2023-07-08T10:17:09;0.00;;;0.00;;
19927;SDS011;10126;50.876;4.470;2023-07-08T10:19:17;0.00;;;0.00;;
19927;SDS011;10126;50.876;4.470;2023-07-08T10:23:48;0.00;;;0.00;;
19927;SDS011;10126;50.876;4.470;2023-07-08T10:26:06;0.00;;;0.00;;
19927;SDS011;10126;50.876;4.470;2023-07-08T10:30:30;0.00;;;0.00;;
19927;SDS011;10126;50.876;4.470;2023-07-08T10:43:59;0.00;;;0.00;;
19927;SDS011;10126;50.876;4.470;2023-07-08T10:48:49;0.00;;;0.00;;
19927;SDS011;10126;50.876;4.470;2023-07-08T10:56:02;0.00;;;0.00;;
19927;SDS011;10126;50.876;4.470;2023-07-08T11:00:37;0.00;;;0.00;;
19927;SDS011;10126;50.876;4.470;2023-07-08T11:05:44;0.00;;;0.00;;
19927;SDS011;10126;50.876;4.470;2023-07-08T11:07:48;0.00;;;0.00;;
19927;SDS011;10126;50.876;4.470;2023-07-08T11:09:56;0.00;;;0.00;;
19927;SDS011;10126;50.876;4.470;2023-07-08T11:12:11;0.00;;;0.00;;
19927;SDS011;10126;50.876;4.470;2023-07-08T11:14:52;0.00;;;0.00;;
19927;SDS011;10126;50.876;4.470;2023-07-08T11:17:00;0.00;;;0.00;;
19927;SDS011;10126;50.876;4.470;2023-07-08T11:19:40;0.00;;;0.00;;
19927;SDS011;10126;50.876;4.470;2023-07-08T11:21:40;0.00;;;0.00;;
19927;SDS011;10126;50.876;4.470;2023-07-08T11:24:03;0.00;;;0.00;;
19927;SDS011;10126;50.876;4.470;2023-07-08T11:26:23;0.00;;;0.00;;
19927;SDS011;10126;50.876;4.470;2023-07-08T11:28:37;0.00;;;0.00;;
19927;SDS011;10126;50.876;4.470;2023-07-08T11:30:38;0.00;;;0.00;;
19927;SDS011;10126;50.876;4.470;2023-07-08T11:32:42;0.00;;;0.00;;
19927;SDS011;10126;50.876;4.470;2023-07-08T11:34:46;0.00;;;0.00;;
19927;SDS011;10126;50.876;4.470;2023-07-08T11:36:50;0.00;;;0.00;;
19927;SDS011;10126;50.876;4.470;2023-07-08T11:38:53;0.00;;;0.00;;
19927;SDS011;10126;50.876;4.470;2023-07-08T11:40:56;0.00;;;0.00;;
19927;SDS011;10126;50.876;4.470;2023-07-08T11:43:03;0.03;;;0.03;;
19927;SDS011;10126;50.876;4.470;2023-07-08T11:47:20;0.00;;;0.00;;
19927;SDS011;10126;50.876;4.470;2023-07-08T11:49:26;0.00;;;0.00;;
19927;SDS011;10126;50.876;4.470;2023-07-08T11:51:28;0.00;;;0.00;;
19927;SDS011;10126;50.876;4.470;2023-07-08T11:53:34;0.00;;;0.00;;
19927;SDS011;10126;50.876;4.470;2023-07-08T11:55:42;0.00;;;0.00;;
19927;SDS011;10126;50.876;4.470;2023-07-08T11:57:43;0.00;;;0.00;;
19927;SDS011;10126;50.876;4.470;2023-07-08T11:59:44;0.00;;;0.00;;
19927;SDS011;10126;50.876;4.470;2023-07-08T12:08:33;0.00;;;0.00;;
19927;SDS011;10126;50.876;4.470;2023-07-08T12:10:38;0.00;;;0.00;;
19927;SDS011;10126;50.876;4.470;2023-07-08T12:12:50;0.00;;;0.00;;
19927;SDS011;10126;50.876;4.470;2023-07-08T12:14:53;0.00;;;0.00;;
19927;SDS011;10126;50.876;4.470;2023-07-08T12:17:00;0.00;;;0.00;;
19927;SDS011;10126;50.876;4.470;2023-07-08T12:19:01;0.00;;;0.00;;
19927;SDS011;10126;50.876;4.470;2023-07-08T12:21:05;0.00;;;0.00;;
19927;SDS011;10126;50.876;4.470;2023-07-08T12:23:15;0.00;;;0.00;;
19927;SDS011;10126;50.876;4.470;2023-07-08T12:25:21;0.00;;;0.00;;
19927;SDS011;10126;50.876;4.470;2023-07-08T12:27:24;0.00;;;0.00;;
19927;SDS011;10126;50.876;4.470;2023-07-08T12:29:25;0.00;;;0.00;;
19927;SDS011;10126;50.876;4.470;2023-07-08T12:31:26;0.00;;;0.00;;
19927;SDS011;10126;50.876;4.470;2023-07-08T12:33:31;0.00;;;0.00;;
19927;SDS011;10126;50.876;4.470;2023-07-08T12:35:33;0.00;;;0.00;;
19927;SDS011;10126;50.876;4.470;2023-07-08T12:37:35;0.00;;;0.00;;
19927;SDS011;10126;50.876;4.470;2023-07-08T12:39:36;0.05;;;0.00;;
19927;SDS011;10126;50.876;4.470;2023-07-08T12:41:36;0.00;;;0.00;;
19927;SDS011;10126;50.876;4.470;2023-07-08T12:43:37;0.00;;;0.00;;
19927;SDS011;10126;50.876;4.470;2023-07-08T12:45:38;0.00;;;0.00;;
19927;SDS011;10126;50.876;4.470;2023-07-08T12:47:39;0.00;;;0.00;;
19927;SDS011;10126;50.876;4.470;2023-07-08T12:49:39;0.00;;;0.00;;
19927;SDS011;10126;50.876;4.470;2023-07-08T12:51:41;0.00;;;0.00;;
19927;SDS011;10126;50.876;4.470;2023-07-08T12:53:45;0.00;;;0.00;;
19927;SDS011;10126;50.876;4.470;2023-07-08T12:55:46;0.00;;;0.00;;
19927;SDS011;10126;50.876;4.470;2023-07-08T12:57:51;0.10;;;0.05;;
19927;SDS011;10126;50.876;4.470;2023-07-08T12:59:52;0.00;;;0.00;;
19927;SDS011;10126;50.876;4.470;2023-07-08T13:01:53;0.00;;;0.00;;
19927;SDS011;10126;50.876;4.470;2023-07-08T13:04:27;0.00;;;0.00;;
19927;SDS011;10126;50.876;4.470;2023-07-08T13:06:23;0.00;;;0.00;;
19927;SDS011;10126;50.876;4.470;2023-07-08T13:08:27;0.00;;;0.00;;
19927;SDS011;10126;50.876;4.470;2023-07-08T13:10:33;0.10;;;0.10;;
19927;SDS011;10126;50.876;4.470;2023-07-08T13:12:36;0.00;;;0.00;;
19927;SDS011;10126;50.876;4.470;2023-07-08T13:14:38;0.00;;;0.00;;